Time;durP1;ratioP1;P1;durP2;ratioP2;P2;SDS_P1;SDS_P2;PMS_P1;PMS_P2;Temp;Humidity;BMP_temperature;BMP_pressure;BME280_temperature;BME280_humidity;BME280_pressure;Samples;Min_cycle;Max_cycle;Signal;HPM_P1;HPM_P2
2023/03/15 05:02:09;;;;;;;3.05;0.68;;;2.20;99.90;;;;;;5138617;23;20261;-69
2023/03/15 05:04:35;;;;;;;0.40;0.40;;;2.20;99.90;;;;;;4930113;29;20591;-68
2023/03/15 05:07:02;;;;;;;4.07;3.95;;;2.20;99.90;;;;;;4927301;29;20221;-69
2023/03/15 05:09:36;;;;;;;0.30;0.30;;;2.20;99.90;;;;;;4930833;29;20651;-68
2023/03/15 05:12:03;;;;;;;1.30;1.30;;;2.20;99.90;;;;;;4926579;29;20260;-69
2023/03/15 05:14:30;;;;;;;1.10;1.10;;;2.20;99.90;;;;;;4916192;29;20651;-70
2023/03/15 05:16:58;;;;;;;0.60;0.60;;;2.20;99.90;;;;;;4912159;29;20552;-70
2023/03/15 05:19:26;;;;;;;4.57;1.52;;;2.20;99.90;;;;;;4940115;23;20214;-67
2023/03/15 05:21:54;;;;;;;0.45;0.40;;;2.20;99.90;;;;;;4940185;29;20570;-70
2023/03/15 05:24:20;;;;;;;0.73;0.73;;;2.20;99.90;;;;;;4939950;29;20277;-70
2023/03/15 05:26:47;;;;;;;1.00;0.45;;;2.20;99.90;;;;;;4937255;29;20599;-70
2023/03/15 05:29:14;;;;;;;3.50;1.70;;;2.20;99.90;;;;;;4935691;29;20210;-71
2023/03/15 05:31:41;;;;;;;1.75;1.00;;;2.20;99.90;;;;;;4916316;29;20623;-71
2023/03/15 05:34:08;;;;;;;0.65;0.65;;;2.20;99.90;;;;;;4909200;29;20219;-71
2023/03/15 05:36:36;;;;;;;0.30;0.30;;;2.20;99.90;;;;;;4916562;29;20316;-70
2023/03/15 05:39:03;;;;;;;0.80;0.80;;;2.20;99.90;;;;;;4911867;29;20213;-71
2023/03/15 05:41:30;;;;;;;2.97;2.88;;;2.30;99.90;;;;;;4918854;29;20727;-70
2023/03/15 05:43:56;;;;;;;1.30;1.30;;;2.20;99.90;;;;;;4917795;29;20547;-70
2023/03/15 05:46:23;;;;;;;2.10;0.88;;;2.30;99.90;;;;;;4919295;29;20230;-70
2023/03/15 05:48:50;;;;;;;0.40;0.40;;;2.30;99.90;;;;;;4917895;29;20210;-70
2023/03/15 05:51:17;;;;;;;0.63;0.63;;;2.30;99.90;;;;;;4914499;29;20238;-70
2023/03/15 05:53:45;;;;;;;1.60;0.95;;;2.30;99.90;;;;;;4916067;29;20225;-69
2023/03/15 05:56:12;;;;;;;1.20;1.10;;;2.30;99.90;;;;;;4908303;29;20211;-70
2023/03/15 05:58:38;;;;;;;5.10;2.30;;;2.30;99.90;;;;;;4914092;29;20210;-70
2023/03/15 06:01:05;;;;;;;0.70;0.60;;;2.30;99.90;;;;;;4916248;29;20245;-71
2023/03/15 06:03:32;;;;;;;0.65;0.63;;;2.30;99.90;;;;;;4911983;29;20717;-71
2023/03/15 06:05:59;;;;;;;1.25;1.25;;;2.30;99.90;;;;;;4907498;29;20221;-71
2023/03/15 06:08:26;;;;;;;2.47;2.00;;;2.40;99.90;;;;;;4909643;29;20264;-71
2023/03/15 06:10:54;;;;;;;0.85;0.85;;;2.40;99.90;;;;;;4904558;29;20246;-71
2023/03/15 06:13:21;;;;;;;1.85;1.23;;;2.40;99.90;;;;;;4916001;29;20217;-70
2023/03/15 06:15:48;;;;;;;1.45;0.70;;;2.40;99.90;;;;;;4914783;29;20400;-71
2023/03/15 06:18:16;;;;;;;0.98;0.98;;;2.40;99.90;;;;;;4908369;29;20214;-70
2023/03/15 06:20:43;;;;;;;1.27;1.27;;;2.40;99.90;;;;;;4909647;29;20249;-70
2023/03/15 06:23:10;;;;;;;1.45;1.45;;;2.40;99.90;;;;;;4904230;29;20243;-71
2023/03/15 06:25:36;;;;;;;0.65;0.65;;;2.40;99.90;;;;;;4913011;29;20214;-70
2023/03/15 06:28:04;;;;;;;1.45;1.45;;;2.50;99.90;;;;;;4916123;29;20221;-71
2023/03/15 06:30:31;;;;;;;3.05;1.80;;;2.50;99.90;;;;;;4915411;29;20226;-70
2023/03/15 06:33:02;;;;;;;0.30;0.30;;;2.50;99.90;;;;;;4922530;29;20226;-71
2023/03/15 06:35:30;;;;;;;0.70;0.70;;;2.60;99.90;;;;;;4913693;29;20211;-71
2023/03/15 06:37:57;;;;;;;1.25;1.25;;;2.60;99.90;;;;;;4905805;29;20218;-71
2023/03/15 06:40:24;;;;;;;1.10;0.95;;;2.60;99.90;;;;;;4911962;29;20232;-71
2023/03/15 06:42:51;;;;;;;1.35;1.25;;;2.60;99.90;;;;;;4904934;29;20238;-70
2023/03/15 06:45:19;;;;;;;0.93;0.93;;;2.60;99.90;;;;;;4905870;29;20218;-69
2023/03/15 06:47:46;;;;;;;2.47;2.28;;;2.70;99.90;;;;;;4903141;29;20226;-69
2023/03/15 06:50:12;;;;;;;2.65;2.50;;;2.70;99.90;;;;;;4899334;29;20227;-69
2023/03/15 06:52:39;;;;;;;2.17;2.10;;;2.80;99.90;;;;;;4905645;29;20209;-71
2023/03/15 06:55:07;;;;;;;0.80;0.80;;;2.70;99.90;;;;;;4913587;29;20207;-70
2023/03/15 06:57:33;;;;;;;1.70;1.70;;;2.80;99.90;;;;;;4900460;29;20636;-69
2023/03/15 07:00:00;;;;;;;2.38;2.28;;;2.80;99.90;;;;;;4906615;29;20235;-70
2023/03/15 07:02:32;;;;;;;1.35;1.30;;;2.80;99.90;;;;;;4908916;29;20214;-70
2023/03/15 07:04:59;;;;;;;2.20;1.55;;;2.80;99.90;;;;;;4904296;29;20218;-70
2023/03/15 07:07:26;;;;;;;0.50;0.50;;;2.90;99.90;;;;;;4909590;29;20210;-69
2023/03/15 07:09:52;;;;;;;0.20;0.20;;;2.90;99.90;;;;;;4915403;29;20237;-70
2023/03/15 07:12:19;;;;;;;1.40;0.60;;;2.90;99.90;;;;;;4908192;29;20216;-70
2023/03/15 07:14:46;;;;;;;0.93;0.93;;;3.00;99.90;;;;;;4911696;29;20213;-69
2023/03/15 07:17:13;;;;;;;1.10;0.90;;;3.10;99.90;;;;;;4913681;29;20289;-69
2023/03/15 07:19:41;;;;;;;0.68;0.68;;;3.10;99.90;;;;;;4903695;29;20216;-69
2023/03/15 07:22:07;;;;;;;0.40;0.40;;;3.20;99.90;;;;;;4910226;29;20573;-69
2023/03/15 07:24:34;;;;;;;1.15;1.15;;;3.20;99.90;;;;;;4909729;29;20239;-69
2023/03/15 07:27:01;;;;;;;1.67;1.15;;;3.20;99.90;;;;;;4904132;29;20203;-69
2023/03/15 07:29:27;;;;;;;0.90;0.90;;;3.20;99.90;;;;;;4907374;29;20287;-69
2023/03/15 07:31:54;;;;;;;0.40;0.40;;;3.20;99.90;;;;;;4904675;29;20587;-69
2023/03/15 07:34:21;;;;;;;0.35;0.35;;;3.10;99.90;;;;;;4898474;29;20205;-69
2023/03/15 07:36:49;;;;;;;0.50;0.50;;;3.10;99.90;;;;;;4901201;29;20234;-69
2023/03/15 07:39:16;;;;;;;0.20;0.20;;;3.20;99.90;;;;;;4908166;29;20274;-69
2023/03/15 07:41:43;;;;;;;0.40;0.30;;;3.20;99.90;;;;;;4906278;29;20740;-69
2023/03/15 07:44:09;;;;;;;2.58;1.20;;;3.20;99.90;;;;;;4911986;29;20234;-69
2023/03/15 07:46:37;;;;;;;0.90;0.90;;;3.20;99.90;;;;;;4905416;29;20218;-68
2023/03/15 07:49:04;;;;;;;0.82;0.82;;;3.20;99.90;;;;;;4910333;29;20702;-68
2023/03/15 07:51:31;;;;;;;1.38;0.57;;;3.20;99.90;;;;;;4902309;29;20226;-68
2023/03/15 07:53:59;;;;;;;0.30;0.30;;;3.20;99.90;;;;;;4910744;29;20250;-69
2023/03/15 07:56:25;;;;;;;0.25;0.25;;;3.30;99.90;;;;;;4913632;29;20939;-68
2023/03/15 07:58:52;;;;;;;0.55;0.45;;;3.30;99.90;;;;;;4902809;29;20214;-68
2023/03/15 08:01:20;;;;;;;2.65;1.60;;;3.40;99.90;;;;;;4905978;29;20230;-68
2023/03/15 08:03:47;;;;;;;1.75;0.57;;;3.50;99.90;;;;;;4906776;29;20223;-68
2023/03/15 08:06:13;;;;;;;1.38;0.47;;;3.70;99.90;;;;;;4909801;29;20228;-70
2023/03/15 08:08:40;;;;;;;10.27;1.90;;;3.80;99.90;;;;;;4908570;29;20214;-69
2023/03/15 08:11:08;;;;;;;0.90;0.90;;;3.90;99.90;;;;;;4911761;29;20230;-70
2023/03/15 08:13:35;;;;;;;1.65;1.38;;;4.10;99.90;;;;;;4911261;29;20225;-70
2023/03/15 08:16:02;;;;;;;0.98;0.98;;;4.30;99.90;;;;;;4906300;29;20208;-70
2023/03/15 08:18:28;;;;;;;0.77;0.60;;;4.50;99.90;;;;;;4897199;29;20538;-70
2023/03/15 08:20:56;;;;;;;0.40;0.40;;;4.60;99.90;;;;;;4908648;29;20246;-70
2023/03/15 08:23:23;;;;;;;1.33;1.33;;;4.80;99.90;;;;;;4909640;29;20246;-70
2023/03/15 08:25:49;;;;;;;0.40;0.40;;;4.70;99.90;;;;;;4909382;29;20299;-70
2023/03/15 08:28:18;;;;;;;1.15;1.15;;;4.60;99.90;;;;;;4913253;29;20265;-71
2023/03/15 08:30:44;;;;;;;0.35;0.35;;;4.40;99.90;;;;;;4908273;29;20226;-70
2023/03/15 08:33:12;;;;;;;0.60;0.60;;;4.10;99.90;;;;;;4905128;29;20211;-70
2023/03/15 08:35:40;;;;;;;0.30;0.30;;;3.90;99.90;;;;;;4906025;29;20267;-69
2023/03/15 08:38:08;;;;;;;0.90;0.60;;;3.80;99.90;;;;;;4910023;29;20217;-69
2023/03/15 08:40:35;;;;;;;20.38;1.75;;;3.70;99.90;;;;;;4908405;29;20234;-70
2023/03/15 08:43:01;;;;;;;0.50;0.50;;;3.70;99.90;;;;;;4907121;29;20613;-70
2023/03/15 08:45:31;;;;;;;1.02;1.02;;;3.70;99.90;;;;;;4912682;29;20206;-71
2023/03/15 08:47:58;;;;;;;0.55;0.55;;;3.70;99.90;;;;;;4909454;29;20273;-69
2023/03/15 08:50:26;;;;;;;1.15;1.15;;;3.80;99.90;;;;;;4912997;29;20227;-69
2023/03/15 08:52:53;;;;;;;1.88;1.70;;;3.80;99.90;;;;;;4914826;29;20222;-69
2023/03/15 08:55:20;;;;;;;3.28;1.13;;;3.70;99.90;;;;;;4912839;29;20660;-67
2023/03/15 08:57:47;;;;;;;2.50;1.15;;;3.70;99.90;;;;;;4913533;29;20214;-67
2023/03/15 09:00:19;;;;;;;0.30;0.30;;;3.60;99.90;;;;;;4911358;29;20308;-69
2023/03/15 09:02:48;;;;;;;0.95;0.45;;;3.60;99.90;;;;;;4914296;29;20239;-68
2023/03/15 09:05:15;;;;;;;0.20;0.20;;;3.50;99.90;;;;;;4915416;29;20231;-68
2023/03/15 09:07:42;;;;;;;1.40;0.40;;;3.50;99.90;;;;;;4918442;29;20209;-69
2023/03/15 09:10:12;;;;;;;0.20;0.20;;;3.50;99.90;;;;;;4923500;29;20235;-69
2023/03/15 09:12:39;;;;;;;0.40;0.40;;;3.50;99.90;;;;;;4914731;29;20211;-68
2023/03/15 09:15:07;;;;;;;1.17;1.10;;;3.50;99.90;;;;;;4912383;29;20208;-68
2023/03/15 09:17:34;;;;;;;0.20;0.20;;;3.60;99.90;;;;;;4908478;29;20546;-68
2023/03/15 09:20:06;;;;;;;0.30;0.30;;;3.70;99.90;;;;;;4903614;29;20253;-68
2023/03/15 09:22:33;;;;;;;0.40;0.40;;;3.80;99.90;;;;;;4911289;29;20210;-68
2023/03/15 09:25:00;;;;;;;1.13;1.13;;;3.90;99.90;;;;;;4912788;29;20257;-68
2023/03/15 09:27:26;;;;;;;0.50;0.50;;;4.00;99.90;;;;;;4914417;29;20221;-68
2023/03/15 09:29:53;;;;;;;0.70;0.70;;;4.20;99.90;;;;;;4903964;29;20273;-67
2023/03/15 09:32:20;;;;;;;0.40;0.40;;;4.20;99.90;;;;;;4914394;29;20219;-68
2023/03/15 09:34:47;;;;;;;0.20;0.20;;;4.30;99.90;;;;;;4911923;29;20656;-68
2023/03/15 09:37:15;;;;;;;0.30;0.30;;;4.50;99.90;;;;;;4901876;29;20218;-68
2023/03/15 09:39:42;;;;;;;0.40;0.40;;;4.50;99.90;;;;;;4905578;29;20243;-68
2023/03/15 09:42:16;;;;;;;0.20;0.20;;;4.50;99.90;;;;;;4911785;29;20222;-68
2023/03/15 09:44:46;;;;;;;0.50;0.50;;;4.50;99.90;;;;;;4908281;29;20858;-68
2023/03/15 09:47:28;;;;;;;0.20;0.20;;;4.60;99.90;;;;;;4903004;29;20215;-69
2023/03/15 09:49:59;;;;;;;0.70;0.70;;;4.60;99.90;;;;;;4909688;29;20594;-68
2023/03/15 09:52:34;;;;;;;0.32;0.32;;;4.70;99.90;;;;;;4909487;29;20203;-68
2023/03/15 09:55:06;;;;;;;0.68;0.68;;;4.70;99.90;;;;;;4903793;29;20206;-68
2023/03/15 09:57:41;;;;;;;0.20;0.20;;;4.80;99.90;;;;;;4908495;29;20217;-70
2023/03/15 10:00:15;;;;;;;0.32;0.32;;;4.90;99.90;;;;;;4916968;29;20229;-69
2023/03/15 10:02:47;;;;;;;1.52;1.33;;;4.90;99.90;;;;;;4919951;29;20241;-69
2023/03/15 10:05:19;;;;;;;0.50;0.50;;;5.00;99.90;;;;;;4910083;29;20273;-69
2023/03/15 10:07:47;;;;;;;3.85;1.05;;;5.20;99.90;;;;;;4915188;29;20234;-69
2023/03/15 10:10:17;;;;;;;0.20;0.20;;;5.40;99.90;;;;;;4904630;29;20734;-68
2023/03/15 10:12:50;;;;;;;1.58;1.38;;;5.60;99.90;;;;;;4908608;29;20289;-69
2023/03/15 10:15:26;;;;;;;1.05;0.40;;;5.70;99.90;;;;;;4911660;29;20665;-69
2023/03/15 10:18:10;;;;;;;0.70;0.70;;;5.80;99.90;;;;;;4907220;29;20560;-69
2023/03/15 10:20:42;;;;;;;0.10;0.10;;;5.70;99.90;;;;;;4905073;29;20241;-68
2023/03/15 10:23:15;;;;;;;0.17;0.17;;;5.60;99.90;;;;;;4914646;29;20273;-68
2023/03/15 10:25:43;;;;;;;0.73;0.40;;;5.60;99.90;;;;;;4904860;29;20241;-69
2023/03/15 10:28:14;;;;;;;2.75;0.57;;;5.70;99.90;;;;;;4902501;29;20219;-69
2023/03/15 10:30:48;;;;;;;0.10;0.10;;;5.80;99.90;;;;;;4910886;29;20238;-69
2023/03/15 10:33:20;;;;;;;3.50;0.50;;;5.80;99.90;;;;;;4920719;29;20214;-69
2023/03/15 10:35:47;;;;;;;1.10;0.63;;;5.80;99.90;;;;;;4914126;29;20211;-70
2023/03/15 10:38:16;;;;;;;0.65;0.65;;;5.80;99.90;;;;;;4913304;29;20234;-70
2023/03/15 10:40:44;;;;;;;1.10;1.08;;;5.80;99.90;;;;;;4918171;29;20230;-69
2023/03/15 10:43:19;;;;;;;0.20;0.20;;;5.70;99.90;;;;;;4912022;29;20239;-69
2023/03/15 10:45:59;;;;;;;0.35;0.35;;;5.80;99.90;;;;;;4912001;29;20229;-69
2023/03/15 10:48:27;;;;;;;0.73;0.73;;;5.80;99.90;;;;;;4904507;29;20221;-69
2023/03/15 10:50:56;;;;;;;0.38;0.38;;;5.90;99.90;;;;;;4904319;29;20569;-68
2023/03/15 10:53:25;;;;;;;0.55;0.55;;;6.00;99.90;;;;;;4911706;29;20297;-70
2023/03/15 10:55:59;;;;;;;0.20;0.20;;;6.00;99.90;;;;;;4910565;29;20210;-69
2023/03/15 10:58:30;;;;;;;1.10;0.98;;;6.00;99.90;;;;;;4903274;29;20215;-68
2023/03/15 11:01:00;;;;;;;0.30;0.30;;;5.90;99.90;;;;;;4923560;29;20630;-69
2023/03/15 11:03:28;;;;;;;7.32;1.60;;;5.80;99.90;;;;;;4917434;29;20217;-69
2023/03/15 11:05:57;;;;;;;0.60;0.60;;;5.90;99.90;;;;;;4921737;29;20285;-69
2023/03/15 11:08:36;;;;;;;0.25;0.25;;;6.00;99.90;;;;;;4921364;29;20210;-69
2023/03/15 11:11:03;;;;;;;0.60;0.60;;;6.10;99.90;;;;;;4909430;29;20226;-69
2023/03/15 11:13:32;;;;;;;14.00;2.42;;;6.30;99.90;;;;;;4903536;29;20313;-69
2023/03/15 11:16:03;;;;;;;0.65;0.65;;;6.30;99.90;;;;;;4905978;29;20203;-69
2023/03/15 11:18:34;;;;;;;0.30;0.30;;;6.00;99.90;;;;;;4902092;29;20206;-68
2023/03/15 11:21:04;;;;;;;0.20;0.20;;;5.70;99.90;;;;;;4902731;29;20719;-67
2023/03/15 11:23:36;;;;;;;0.38;0.38;;;5.20;99.90;;;;;;4920589;23;20191;-70
2023/03/15 11:26:03;;;;;;;0.10;0.10;;;5.00;99.90;;;;;;4942159;29;20222;-71
2023/03/15 11:28:35;;;;;;;0.20;0.20;;;4.80;99.90;;;;;;4933793;28;20214;-71
2023/03/15 11:31:05;;;;;;;0.20;0.20;;;4.60;99.90;;;;;;4931410;29;20288;-71
2023/03/15 11:33:42;;;;;;;2.65;0.55;;;4.60;99.90;;;;;;4934883;28;20252;-71
2023/03/15 11:36:15;;;;;;;0.10;0.10;;;4.60;99.90;;;;;;4931967;29;20576;-72
2023/03/15 11:38:44;;;;;;;12.60;1.05;;;4.50;99.90;;;;;;4921442;29;20229;-70
2023/03/15 11:41:20;;;;;;;0.10;0.10;;;4.40;99.90;;;;;;4924390;29;20206;-71
2023/03/15 11:43:54;;;;;;;0.20;0.20;;;4.40;99.90;;;;;;4936701;28;20697;-70
2023/03/15 11:46:27;;;;;;;0.60;0.60;;;4.40;99.90;;;;;;4927571;29;20277;-71
2023/03/15 11:49:02;;;;;;;0.43;0.43;;;4.50;99.90;;;;;;4926883;29;20213;-71
2023/03/15 11:51:33;;;;;;;0.40;0.40;;;4.50;99.90;;;;;;4924294;29;20215;-70
2023/03/15 11:54:08;;;;;;;0.10;0.10;;;4.60;99.90;;;;;;4930554;29;20233;-71
2023/03/15 11:56:51;;;;;;;0.30;0.30;;;4.70;99.90;;;;;;4921691;29;20209;-70
2023/03/15 11:59:20;;;;;;;0.10;0.10;;;4.80;99.90;;;;;;4929083;29;20202;-71
2023/03/15 12:01:49;;;;;;;0.20;0.20;;;4.90;99.90;;;;;;4940831;29;20219;-72
2023/03/15 12:04:39;;;;;;;0.43;0.43;;;4.90;99.90;;;;;;4928197;29;20240;-71
2023/03/15 12:07:23;;;;;;;0.20;0.20;;;5.10;99.90;;;;;;4926403;29;20202;-71
2023/03/15 12:09:55;;;;;;;0.60;0.60;;;5.20;99.90;;;;;;4929515;29;20210;-71
2023/03/15 12:12:45;;;;;;;2.85;1.65;;;5.30;99.90;;;;;;4930571;29;20222;-71
2023/03/15 12:15:48;;;;;;;0.20;0.20;;;5.50;99.90;;;;;;4923939;29;20707;-71
2023/03/15 12:18:38;;;;;;;0.10;0.10;;;5.60;99.90;;;;;;4920606;29;20210;-71
2023/03/15 12:21:14;;;;;;;0.90;0.82;;;5.80;99.90;;;;;;4940166;29;20689;-71
2023/03/15 12:23:45;;;;;;;3.42;0.43;;;6.00;99.90;;;;;;4931846;29;20241;-70
2023/03/15 12:26:24;;;;;;;1.30;0.77;;;6.20;99.90;;;;;;4917997;29;20226;-70
2023/03/15 12:28:53;;;;;;;0.20;0.20;;;6.30;99.90;;;;;;4929900;29;20210;-70
2023/03/15 12:31:20;;;;;;;0.40;0.40;;;6.40;99.90;;;;;;4930994;29;20609;-69
2023/03/15 12:33:50;;;;;;;0.32;0.32;;;6.40;99.90;;;;;;4938001;28;20319;-71
2023/03/15 12:36:26;;;;;;;0.52;0.52;;;6.50;99.90;;;;;;4937571;29;20212;-71
2023/03/15 12:39:01;;;;;;;0.93;0.93;;;6.60;99.90;;;;;;4922753;29;20210;-71
2023/03/15 12:41:38;;;;;;;0.30;0.30;;;6.70;99.90;;;;;;4928368;29;20297;-71
2023/03/15 12:44:26;;;;;;;1.27;1.23;;;6.70;99.90;;;;;;4924263;29;20240;-71
2023/03/15 12:46:56;;;;;;;0.20;0.20;;;6.70;99.90;;;;;;4921714;29;20671;-69
2023/03/15 12:49:32;;;;;;;0.20;0.20;;;6.60;99.90;;;;;;4933628;29;20206;-70
2023/03/15 12:52:01;;;;;;;0.50;0.50;;;6.50;99.90;;;;;;4931313;29;20206;-71
2023/03/15 12:54:34;;;;;;;0.10;0.10;;;6.10;99.90;;;;;;4919464;29;20235;-71
2023/03/15 12:57:04;;;;;;;2.75;0.93;;;5.60;99.90;;;;;;4927186;29;20222;-68
2023/03/15 12:59:39;;;;;;;0.10;0.10;;;5.30;99.90;;;;;;4929639;29;20636;-71
2023/03/15 13:02:32;;;;;;;0.75;0.73;;;5.20;99.90;;;;;;4930403;29;20241;-70
2023/03/15 13:05:13;;;;;;;0.20;0.20;;;4.90;99.90;;;;;;4928585;29;20242;-69
2023/03/15 13:07:55;;;;;;;0.20;0.20;;;4.80;99.90;;;;;;4931750;29;20237;-68
2023/03/15 13:10:52;;;;;;;0.43;0.43;;;4.90;99.90;;;;;;4931136;29;20607;-70
2023/03/15 13:13:46;;;;;;;0.30;0.30;;;5.00;99.90;;;;;;4922458;29;20836;-71
2023/03/15 13:16:23;;;;;;;0.82;0.82;;;5.00;99.90;;;;;;4931724;29;20210;-70
2023/03/15 13:18:59;;;;;;;0.57;0.57;;;4.90;99.90;;;;;;4944548;28;20205;-70
2023/03/15 13:21:31;;;;;;;0.22;0.22;;;4.70;99.90;;;;;;4920269;29;20218;-70
2023/03/15 13:23:59;;;;;;;0.40;0.40;;;4.50;99.90;;;;;;4921760;29;20613;-70
2023/03/15 13:26:39;;;;;;;1.30;0.40;;;4.50;99.90;;;;;;4925490;29;20569;-67
2023/03/15 13:29:16;;;;;;;0.20;0.20;;;4.50;99.90;;;;;;4924022;29;20209;-70
2023/03/15 13:31:44;;;;;;;7.18;0.70;;;4.40;99.90;;;;;;4927136;29;20221;-70
2023/03/15 13:34:14;;;;;;;0.25;0.25;;;4.40;99.90;;;;;;4925814;29;20618;-71
2023/03/15 13:36:43;;;;;;;0.10;0.10;;;4.30;99.90;;;;;;4927648;29;20230;-71
2023/03/15 13:39:16;;;;;;;1.10;0.52;;;4.20;99.90;;;;;;4936643;29;20206;-70
2023/03/15 13:41:43;;;;;;;0.50;0.50;;;4.30;99.90;;;;;;4933369;29;20209;-71
2023/03/15 13:44:18;;;;;;;3.33;2.05;;;4.30;99.90;;;;;;4941064;28;20737;-71
2023/03/15 13:46:46;;;;;;;0.57;0.57;;;4.40;99.90;;;;;;4925942;29;20236;-70
2023/03/15 13:49:13;;;;;;;0.10;0.10;;;4.60;99.90;;;;;;4924047;29;20206;-70
2023/03/15 13:51:40;;;;;;;0.35;0.25;;;4.70;99.90;;;;;;4934628;29;20216;-71
2023/03/15 13:54:12;;;;;;;0.30;0.30;;;4.80;99.90;;;;;;4934045;29;20236;-72
2023/03/15 13:56:54;;;;;;;0.77;0.77;;;4.90;99.90;;;;;;4944362;28;20681;-70
2023/03/15 13:59:23;;;;;;;0.20;0.20;;;5.00;99.90;;;;;;4954610;28;20208;-71
2023/03/15 14:01:53;;;;;;;0.10;0.10;;;5.00;99.90;;;;;;4935193;28;20210;-71
2023/03/15 14:04:22;;;;;;;1.05;1.05;;;5.10;99.90;;;;;;4932721;29;20234;-71
2023/03/15 14:06:49;;;;;;;0.90;0.90;;;5.20;99.90;;;;;;4937778;29;20574;-71
2023/03/15 14:09:20;;;;;;;1.75;0.30;;;5.30;99.90;;;;;;4926185;29;20210;-73
2023/03/15 14:12:01;;;;;;;0.10;0.10;;;5.40;99.90;;;;;;4918159;29;20245;-71
2023/03/15 14:14:30;;;;;;;0.60;0.60;;;5.50;99.90;;;;;;4944210;28;20229;-71
2023/03/15 14:16:58;;;;;;;2.28;1.80;;;5.50;99.90;;;;;;4941133;29;20649;-70
2023/03/15 14:19:27;;;;;;;0.20;0.20;;;5.60;99.90;;;;;;4926338;29;20217;-71
2023/03/15 14:21:56;;;;;;;0.60;0.60;;;5.70;99.90;;;;;;4933812;29;20214;-70
2023/03/15 14:24:28;;;;;;;0.47;0.22;;;5.70;99.90;;;;;;4919220;29;20234;-71
2023/03/15 14:26:58;;;;;;;0.30;0.30;;;5.80;99.90;;;;;;4925233;29;20223;-71
2023/03/15 14:29:30;;;;;;;0.20;0.20;;;5.90;99.90;;;;;;4918300;29;20564;-70
2023/03/15 14:32:01;;;;;;;6.70;0.30;;;6.00;99.90;;;;;;4915100;29;20210;-71
2023/03/15 14:34:33;;;;;;;0.20;0.20;;;6.00;99.90;;;;;;4937860;29;20694;-68
2023/03/15 14:37:03;;;;;;;0.47;0.47;;;6.10;99.90;;;;;;4933575;29;20202;-71
2023/03/15 14:39:32;;;;;;;0.20;0.20;;;6.20;99.90;;;;;;4927011;29;20207;-70
2023/03/15 14:41:59;;;;;;;1.15;1.15;;;6.20;99.90;;;;;;4926337;29;20205;-71
2023/03/15 14:44:25;;;;;;;2.95;0.38;;;6.20;99.90;;;;;;4933524;29;20603;-70
2023/03/15 14:46:54;;;;;;;7.63;0.50;;;6.10;99.90;;;;;;4924775;29;20233;-71
2023/03/15 14:49:24;;;;;;;0.20;0.20;;;6.10;99.90;;;;;;4926184;29;20217;-70
2023/03/15 14:51:56;;;;;;;0.40;0.40;;;6.10;99.90;;;;;;4941081;29;20682;-70
2023/03/15 14:54:23;;;;;;;0.40;0.40;;;6.00;99.90;;;;;;4937971;28;20230;-71
2023/03/15 14:56:50;;;;;;;0.10;0.10;;;6.10;99.90;;;;;;4924233;29;20672;-70
2023/03/15 14:59:17;;;;;;;0.55;0.40;;;6.10;99.90;;;;;;4925631;29;20214;-69
2023/03/15 15:01:48;;;;;;;0.10;0.10;;;6.10;99.90;;;;;;4924313;29;20616;-70
2023/03/15 15:04:18;;;;;;;0.20;0.20;;;6.10;99.90;;;;;;4930297;29;20230;-70
2023/03/15 15:06:50;;;;;;;0.20;0.20;;;5.80;99.90;;;;;;4927645;29;20300;-69
2023/03/15 15:09:21;;;;;;;0.30;0.30;;;5.10;99.90;;;;;;4939359;29;20615;-70
2023/03/15 15:11:48;;;;;;;1.30;1.30;;;4.50;99.90;;;;;;4917434;28;20210;-70
2023/03/15 15:14:15;;;;;;;0.35;0.35;;;4.30;99.90;;;;;;4923520;29;20231;-69
2023/03/15 15:16:42;;;;;;;0.30;0.30;;;4.20;99.90;;;;;;4929594;29;20220;-70
2023/03/15 15:19:10;;;;;;;0.10;0.10;;;4.20;99.90;;;;;;4931161;29;20253;-70
2023/03/15 15:21:39;;;;;;;0.45;0.45;;;4.10;99.90;;;;;;4933187;28;21100;-69
2023/03/15 15:24:14;;;;;;;1.00;1.00;;;4.00;99.90;;;;;;4947502;28;20244;-69
2023/03/15 15:26:41;;;;;;;0.10;0.10;;;3.80;99.90;;;;;;4920421;29;20623;-70
2023/03/15 15:29:11;;;;;;;0.95;0.38;;;3.60;99.90;;;;;;4915032;29;20210;-70
2023/03/15 15:31:38;;;;;;;0.52;0.52;;;3.50;99.90;;;;;;4922102;29;20214;-70
2023/03/15 15:34:05;;;;;;;0.10;0.10;;;3.30;99.90;;;;;;4925503;29;20710;-70
2023/03/15 15:36:34;;;;;;;0.20;0.20;;;3.20;99.90;;;;;;4944176;29;20201;-70
2023/03/15 15:39:04;;;;;;;0.20;0.20;;;3.20;99.90;;;;;;4936710;28;20214;-70
2023/03/15 15:41:32;;;;;;;0.10;0.10;;;3.20;99.90;;;;;;4928917;29;20269;-70
2023/03/15 15:43:59;;;;;;;0.30;0.30;;;3.30;99.90;;;;;;4919916;29;20234;-70
2023/03/15 15:46:25;;;;;;;3.13;0.60;;;3.30;99.90;;;;;;4921764;29;20544;-69
2023/03/15 15:48:53;;;;;;;1.15;0.93;;;3.40;99.90;;;;;;4920417;29;20206;-70
2023/03/15 15:51:25;;;;;;;0.50;0.50;;;3.40;99.90;;;;;;4922079;29;20218;-70
2023/03/15 15:53:52;;;;;;;0.28;0.28;;;3.50;99.90;;;;;;4923323;29;20233;-69
2023/03/15 15:56:22;;;;;;;0.10;0.10;;;3.50;99.90;;;;;;4925397;29;20904;-70
2023/03/15 15:58:49;;;;;;;0.40;0.40;;;3.50;99.90;;;;;;4926713;29;20224;-70
2023/03/15 16:01:16;;;;;;;0.30;0.30;;;3.50;99.90;;;;;;4924421;29;20589;-70
2023/03/15 16:03:43;;;;;;;0.20;0.20;;;3.60;99.90;;;;;;4922850;29;20225;-70
2023/03/15 16:06:17;;;;;;;0.95;0.95;;;3.60;99.90;;;;;;4924733;29;20233;-70
2023/03/15 16:08:45;;;;;;;0.32;0.32;;;3.60;99.90;;;;;;4924456;29;20217;-70
2023/03/15 16:11:15;;;;;;;0.20;0.20;;;3.60;99.90;;;;;;4924940;29;20215;-70
2023/03/15 16:13:44;;;;;;;0.30;0.30;;;3.60;99.90;;;;;;4925216;29;20226;-70
2023/03/15 16:16:13;;;;;;;0.38;0.38;;;3.60;99.90;;;;;;4923775;29;20213;-70
2023/03/15 16:18:40;;;;;;;0.30;0.30;;;3.60;99.90;;;;;;4924681;29;20209;-70
2023/03/15 16:21:07;;;;;;;1.55;0.80;;;3.60;99.90;;;;;;4924527;29;20209;-70
2023/03/15 16:23:34;;;;;;;0.30;0.30;;;3.60;99.90;;;;;;4925065;29;20225;-70
2023/03/15 16:26:00;;;;;;;1.17;0.73;;;3.60;99.90;;;;;;4926338;29;21684;-70
2023/03/15 16:28:28;;;;;;;1.88;0.50;;;3.50;99.90;;;;;;4921855;29;20218;-70
2023/03/15 16:30:56;;;;;;;0.70;0.70;;;3.50;99.90;;;;;;4926176;29;20221;-70
2023/03/15 16:33:22;;;;;;;0.60;0.60;;;3.50;99.90;;;;;;4924679;29;20667;-70
2023/03/15 16:35:51;;;;;;;1.35;0.52;;;3.50;99.90;;;;;;4927495;29;20213;-70
2023/03/15 16:38:23;;;;;;;0.40;0.40;;;3.50;99.90;;;;;;4925477;29;20593;-70
2023/03/15 16:40:50;;;;;;;1.00;1.00;;;3.50;99.90;;;;;;4927365;29;20241;-70
2023/03/15 16:43:18;;;;;;;0.57;0.57;;;3.50;99.90;;;;;;4934104;28;20217;-70
2023/03/15 16:45:46;;;;;;;0.40;0.40;;;3.40;99.90;;;;;;4927848;29;20234;-70
2023/03/15 16:48:14;;;;;;;0.20;0.20;;;3.40;99.90;;;;;;4929619;29;20238;-69
2023/03/15 16:50:41;;;;;;;0.40;0.25;;;3.40;99.90;;;;;;4926504;29;20308;-70
2023/03/15 16:53:10;;;;;;;1.88;1.85;;;3.40;99.90;;;;;;4938358;29;20232;-70
2023/03/15 16:55:38;;;;;;;1.15;1.15;;;3.40;99.90;;;;;;4938513;29;20365;-72
2023/03/15 16:58:15;;;;;;;0.77;0.77;;;3.40;99.90;;;;;;4932644;29;20273;-70
2023/03/15 17:00:43;;;;;;;0.30;0.30;;;3.30;99.90;;;;;;4946298;29;20205;-70
2023/03/15 17:03:11;;;;;;;0.43;0.43;;;3.30;99.90;;;;;;4934423;29;20582;-70
2023/03/15 17:05:40;;;;;;;2.28;2.08;;;3.30;99.90;;;;;;4946887;29;20210;-70
2023/03/15 17:08:11;;;;;;;0.73;0.73;;;3.30;99.90;;;;;;4944157;29;20666;-70
2023/03/15 17:10:39;;;;;;;1.27;0.40;;;3.20;99.90;;;;;;4932292;29;20216;-70
2023/03/15 17:13:07;;;;;;;1.35;1.25;;;3.20;99.90;;;;;;4931796;28;20229;-70
2023/03/15 17:15:33;;;;;;;0.70;0.70;;;3.20;99.90;;;;;;4927266;29;20218;-70
2023/03/15 17:18:02;;;;;;;0.35;0.35;;;3.10;99.90;;;;;;4929960;29;20226;-69
2023/03/15 17:20:29;;;;;;;1.33;1.00;;;3.10;99.90;;;;;;4931177;29;20221;-70
2023/03/15 17:23:00;;;;;;;4.97;1.27;;;3.00;99.90;;;;;;4925801;29;20856;-70
2023/03/15 17:25:27;;;;;;;1.20;1.20;;;3.00;99.90;;;;;;4929505;29;20234;-70
2023/03/15 17:27:54;;;;;;;1.52;1.42;;;3.00;99.90;;;;;;4947794;23;20230;-67
2023/03/15 17:30:23;;;;;;;1.65;1.65;;;3.00;99.90;;;;;;4935109;28;20214;-66
2023/03/15 17:32:50;;;;;;;0.40;0.40;;;2.90;99.90;;;;;;4938631;28;20210;-68
2023/03/15 17:35:19;;;;;;;1.00;0.80;;;2.90;99.90;;;;;;4924673;29;20241;-67
2023/03/15 17:37:47;;;;;;;0.65;0.65;;;2.90;99.90;;;;;;4930140;29;20217;-66
2023/03/15 17:40:21;;;;;;;1.50;1.40;;;2.90;99.90;;;;;;4907907;29;20222;-66
2023/03/15 17:42:48;;;;;;;2.05;1.95;;;2.90;99.90;;;;;;4920465;29;20219;-67
2023/03/15 17:45:17;;;;;;;0.68;0.68;;;2.80;99.90;;;;;;4914790;29;20293;-67
2023/03/15 17:47:43;;;;;;;1.00;1.00;;;2.80;99.90;;;;;;4906419;29;20237;-67
2023/03/15 17:50:11;;;;;;;3.10;2.15;;;2.80;99.90;;;;;;4915191;29;20677;-66
2023/03/15 17:52:39;;;;;;;10.70;3.25;;;2.70;99.90;;;;;;4911988;29;20281;-69
2023/03/15 17:55:09;;;;;;;1.08;0.50;;;2.70;99.90;;;;;;4908533;29;20214;-68
2023/03/15 17:57:37;;;;;;;1.23;1.08;;;2.70;99.90;;;;;;4905526;29;20231;-69
2023/03/15 18:00:04;;;;;;;2.58;0.80;;;2.70;99.90;;;;;;4922451;29;20618;-68
2023/03/15 18:02:31;;;;;;;1.70;1.30;;;2.60;99.90;;;;;;4916195;29;20229;-68
2023/03/15 18:04:59;;;;;;;1.48;1.33;;;2.60;99.90;;;;;;4919607;29;20206;-68
2023/03/15 18:07:28;;;;;;;0.55;0.55;;;2.60;99.90;;;;;;4906325;29;20608;-68
2023/03/15 18:09:55;;;;;;;1.92;1.75;;;2.60;99.90;;;;;;4897443;29;20238;-68
2023/03/15 18:12:22;;;;;;;3.38;3.17;;;2.50;99.90;;;;;;4893002;29;20222;-68